Time;durP1;ratioP1;P1;durP2;ratioP2;P2;SDS_P1;SDS_P2;PMS_P1;PMS_P2;Temp;Humidity;BMP_temperature;BMP_pressure;BME280_temperature;BME280_humidity;BME280_pressure;Samples;Min_cycle;Max_cycle;Signal;HPM_P1;HPM_P2
2022/01/04 00:01:00;;;;;;;22.08;16.80;;;;;;;;;;5025351;28;20128;-75
2022/01/04 00:03:26;;;;;;;29.10;17.50;;;;;;;;;;5027175;28;20022;-75
2022/01/04 00:05:52;;;;;;;20.23;17.13;;;;;;;;;;5020676;28;20087;-75
2022/01/04 00:08:18;;;;;;;28.27;18.23;;;;;;;;;;5028402;28;20048;-75
2022/01/04 00:10:44;;;;;;;24.40;18.00;;;;;;;;;;5028067;28;20056;-76
2022/01/04 00:13:25;;;;;;;28.95;18.17;;;;;;;;;;5025976;28;20025;-75
2022/01/04 00:15:52;;;;;;;23.90;18.15;;;;;;;;;;5021116;28;20018;-76
2022/01/04 00:18:18;;;;;;;24.88;17.48;;;;;;;;;;5025006;28;20028;-76
2022/01/04 00:20:45;;;;;;;28.40;18.05;;;;;;;;;;5021279;28;20036;-76
2022/01/04 00:23:11;;;;;;;22.10;15.57;;;;;;;;;;5021107;28;20121;-75
2022/01/04 00:25:37;;;;;;;26.40;18.00;;;;;;;;;;5022357;28;20104;-75
2022/01/04 00:28:07;;;;;;;21.13;15.30;;;;;;;;;;5020871;28;20232;-75
2022/01/04 00:30:42;;;;;;;27.08;17.88;;;;;;;;;;5029400;28;20026;-76
2022/01/04 00:36:14;;;;;;;29.92;17.05;;;;;;;;;;4999061;28;20466;-75
2022/01/04 00:38:39;;;;;;;22.65;15.52;;;;;;;;;;5022949;28;20460;-75
2022/01/04 00:41:06;;;;;;;21.48;15.80;;;;;;;;;;5021643;28;20026;-75
2022/01/04 00:43:32;;;;;;;24.30;15.13;;;;;;;;;;5022738;28;20043;-76
2022/01/04 00:45:59;;;;;;;19.65;14.63;;;;;;;;;;5023505;28;20082;-75
2022/01/04 00:50:51;;;;;;;18.65;14.30;;;;;;;;;;5030013;28;20025;-75
2022/01/04 00:53:18;;;;;;;27.10;16.13;;;;;;;;;;5030051;28;20509;-75
2022/01/04 00:55:44;;;;;;;19.63;14.30;;;;;;;;;;5029923;28;20029;-75
2022/01/04 00:58:10;;;;;;;24.45;14.65;;;;;;;;;;5026513;28;20184;-75
2022/01/04 01:00:36;;;;;;;22.73;14.07;;;;;;;;;;5028628;28;20036;-75
2022/01/04 01:03:03;;;;;;;23.80;16.40;;;;;;;;;;5029950;28;20037;-75
2022/01/04 01:05:29;;;;;;;25.42;15.52;;;;;;;;;;5029654;28;20084;-74
2022/01/04 01:07:56;;;;;;;22.42;16.13;;;;;;;;;;5009893;28;20030;-74
2022/01/04 01:12:53;;;;;;;21.20;15.35;;;;;;;;;;5030113;28;20037;-75
2022/01/04 01:15:19;;;;;;;24.83;15.90;;;;;;;;;;5029783;28;20483;-75
2022/01/04 01:17:45;;;;;;;26.52;16.15;;;;;;;;;;5026465;28;20117;-76
2022/01/04 01:20:13;;;;;;;21.90;16.67;;;;;;;;;;5019278;28;20104;-75
2022/01/04 01:22:40;;;;;;;24.83;15.63;;;;;;;;;;5029767;28;20067;-75
2022/01/04 01:25:06;;;;;;;24.20;16.08;;;;;;;;;;5027755;28;20108;-75
2022/01/04 01:27:33;;;;;;;20.38;15.43;;;;;;;;;;5020904;28;20104;-74
2022/01/04 01:29:59;;;;;;;26.45;17.23;;;;;;;;;;5029147;28;20033;-75
2022/01/04 01:32:31;;;;;;;23.65;17.45;;;;;;;;;;5029226;28;20025;-77
2022/01/04 01:34:57;;;;;;;23.90;17.33;;;;;;;;;;5029447;28;20075;-75
2022/01/04 01:37:23;;;;;;;24.90;16.38;;;;;;;;;;5029560;28;20022;-75
2022/01/04 01:39:49;;;;;;;24.88;16.67;;;;;;;;;;5029673;28;20164;-74
2022/01/04 01:42:15;;;;;;;26.08;17.55;;;;;;;;;;5029045;28;20457;-75
2022/01/04 01:44:42;;;;;;;23.42;16.95;;;;;;;;;;5029477;28;20101;-74
2022/01/04 01:47:08;;;;;;;24.13;17.52;;;;;;;;;;5029189;28;20030;-75
2022/01/04 01:49:34;;;;;;;29.42;17.80;;;;;;;;;;5029717;28;20108;-75
2022/01/04 01:52:01;;;;;;;20.90;16.67;;;;;;;;;;5020726;28;20046;-76
2022/01/04 01:54:27;;;;;;;24.25;16.88;;;;;;;;;;5028746;28;20458;-75
2022/01/04 01:56:53;;;;;;;24.02;16.25;;;;;;;;;;5026688;28;20029;-74
2022/01/04 01:59:19;;;;;;;24.73;17.40;;;;;;;;;;5029050;28;20056;-76
2022/01/04 02:01:46;;;;;;;22.58;17.60;;;;;;;;;;5028360;28;20070;-75
2022/01/04 02:04:12;;;;;;;23.20;16.67;;;;;;;;;;5016492;28;20036;-76
2022/01/04 02:06:38;;;;;;;25.83;18.60;;;;;;;;;;5018231;28;20022;-76
2022/01/04 02:09:04;;;;;;;25.95;18.42;;;;;;;;;;5012553;28;20894;-76
2022/01/04 02:11:31;;;;;;;25.30;17.35;;;;;;;;;;5015100;28;20067;-76
2022/01/04 02:13:58;;;;;;;25.35;18.55;;;;;;;;;;5016589;28;20029;-74
2022/01/04 02:16:25;;;;;;;25.40;18.67;;;;;;;;;;5012969;28;20140;-74
2022/01/04 02:19:05;;;;;;;23.02;15.88;;;;;;;;;;5028586;28;20079;-74
2022/01/04 02:21:31;;;;;;;24.88;18.48;;;;;;;;;;5028279;28;20064;-75
2022/01/04 02:23:57;;;;;;;22.42;18.92;;;;;;;;;;5028947;28;20029;-75
2022/01/04 02:26:23;;;;;;;23.55;17.55;;;;;;;;;;5028650;28;20035;-75
2022/01/04 02:28:50;;;;;;;29.92;18.38;;;;;;;;;;5027919;28;20108;-75
2022/01/04 02:31:16;;;;;;;25.77;18.25;;;;;;;;;;5028528;28;20170;-75
2022/01/04 02:33:42;;;;;;;23.42;16.48;;;;;;;;;;5028443;28;20107;-75
2022/01/04 02:36:08;;;;;;;24.30;18.42;;;;;;;;;;5028310;28;20175;-75
2022/01/04 02:38:34;;;;;;;26.90;19.05;;;;;;;;;;5027911;28;20064;-75
2022/01/04 02:41:01;;;;;;;23.52;18.45;;;;;;;;;;5022462;28;20033;-75
2022/01/04 02:43:28;;;;;;;25.10;18.23;;;;;;;;;;5028342;28;20030;-75
2022/01/04 02:45:54;;;;;;;24.55;17.80;;;;;;;;;;5028349;28;20104;-75
2022/01/04 02:48:20;;;;;;;27.27;19.13;;;;;;;;;;5028086;28;20094;-75
2022/01/04 02:50:46;;;;;;;31.02;18.00;;;;;;;;;;5028447;28;20448;-75
2022/01/04 02:53:12;;;;;;;25.58;17.80;;;;;;;;;;5028239;28;20094;-76
2022/01/04 02:55:38;;;;;;;29.23;18.67;;;;;;;;;;5029336;28;20091;-74
2022/01/04 02:58:04;;;;;;;25.45;17.08;;;;;;;;;;5029274;28;20141;-73
2022/01/04 03:00:30;;;;;;;20.95;16.92;;;;;;;;;;5025602;28;20096;-75
2022/01/04 03:02:56;;;;;;;22.98;16.83;;;;;;;;;;5013142;28;20037;-75
2022/01/04 03:05:23;;;;;;;23.33;16.80;;;;;;;;;;5028990;28;20112;-75
2022/01/04 03:07:49;;;;;;;22.80;17.75;;;;;;;;;;5028453;28;20021;-75
2022/01/04 03:10:15;;;;;;;33.63;18.08;;;;;;;;;;5024797;28;20525;-75
2022/01/04 03:12:44;;;;;;;26.73;16.25;;;;;;;;;;5027969;28;20057;-73
2022/01/04 03:15:11;;;;;;;20.95;16.70;;;;;;;;;;5026340;28;20128;-74
2022/01/04 03:17:37;;;;;;;21.48;15.55;;;;;;;;;;5028699;28;20022;-75
2022/01/04 03:20:04;;;;;;;17.77;12.35;;;;;;;;;;5028027;28;20096;-74
2022/01/04 03:22:30;;;;;;;25.45;14.57;;;;;;;;;;5028363;28;20057;-75
2022/01/04 03:24:56;;;;;;;20.45;15.25;;;;;;;;;;5028661;28;20017;-75
2022/01/04 03:27:22;;;;;;;25.50;15.95;;;;;;;;;;5030292;28;20368;-75
2022/01/04 03:29:48;;;;;;;24.35;15.68;;;;;;;;;;5030943;28;20789;-75
2022/01/04 03:32:14;;;;;;;21.80;15.68;;;;;;;;;;5031486;28;20064;-73
2022/01/04 03:34:40;;;;;;;20.83;14.82;;;;;;;;;;5031266;28;20081;-74
2022/01/04 03:37:08;;;;;;;18.08;12.80;;;;;;;;;;5031944;28;20014;-74
2022/01/04 03:39:34;;;;;;;20.23;14.95;;;;;;;;;;5031353;28;20045;-74
2022/01/04 03:42:00;;;;;;;21.50;15.98;;;;;;;;;;5031028;28;20138;-73
2022/01/04 03:44:27;;;;;;;27.05;15.77;;;;;;;;;;5031019;28;20018;-75
2022/01/04 03:46:54;;;;;;;24.00;15.90;;;;;;;;;;5031054;28;20025;-75
2022/01/04 03:49:20;;;;;;;19.63;15.60;;;;;;;;;;5031469;28;20112;-75
2022/01/04 03:51:46;;;;;;;23.42;17.90;;;;;;;;;;5030962;28;20101;-74
2022/01/04 03:54:12;;;;;;;20.73;15.77;;;;;;;;;;5030954;28;20157;-75
2022/01/04 03:56:38;;;;;;;24.42;14.38;;;;;;;;;;5030997;28;20030;-75
2022/01/04 03:59:04;;;;;;;20.80;14.45;;;;;;;;;;5031346;28;20057;-75
2022/01/04 04:01:30;;;;;;;19.45;15.10;;;;;;;;;;5030499;28;20040;-75
2022/01/04 04:03:56;;;;;;;21.75;16.38;;;;;;;;;;5031470;28;20021;-75
2022/01/04 04:06:22;;;;;;;21.88;16.40;;;;;;;;;;5030646;28;20109;-74
2022/01/04 04:08:49;;;;;;;22.08;15.85;;;;;;;;;;5031013;28;20132;-74
2022/01/04 04:11:15;;;;;;;23.13;16.48;;;;;;;;;;5030626;28;20431;-74
2022/01/04 04:13:41;;;;;;;22.85;14.18;;;;;;;;;;5031362;28;20129;-75
2022/01/04 04:16:07;;;;;;;22.90;15.60;;;;;;;;;;5030552;28;20412;-75
2022/01/04 04:18:33;;;;;;;25.95;17.02;;;;;;;;;;5030516;28;20433;-74
2022/01/04 04:20:59;;;;;;;25.42;17.38;;;;;;;;;;5030430;28;20053;-76
2022/01/04 04:23:25;;;;;;;24.20;17.00;;;;;;;;;;5030603;28;20053;-75
2022/01/04 04:25:51;;;;;;;25.55;16.48;;;;;;;;;;5030419;28;20092;-75
2022/01/04 04:28:17;;;;;;;24.05;17.55;;;;;;;;;;5030613;28;20025;-75
2022/01/04 04:30:43;;;;;;;23.88;17.75;;;;;;;;;;5029969;28;20029;-75
2022/01/04 04:33:09;;;;;;;23.83;16.20;;;;;;;;;;5030452;28;20033;-75
2022/01/04 04:35:35;;;;;;;24.85;19.55;;;;;;;;;;5030888;28;20032;-75
2022/01/04 04:38:02;;;;;;;25.33;18.20;;;;;;;;;;5029841;28;20048;-75
2022/01/04 04:40:28;;;;;;;26.20;18.30;;;;;;;;;;5030095;28;20029;-75
2022/01/04 04:42:54;;;;;;;27.40;17.90;;;;;;;;;;5030106;28;20088;-75
2022/01/04 04:45:20;;;;;;;27.02;17.67;;;;;;;;;;5029445;28;20021;-76
2022/01/04 04:47:46;;;;;;;24.60;17.25;;;;;;;;;;5030376;28;20036;-75
2022/01/04 04:50:12;;;;;;;26.23;19.98;;;;;;;;;;5030412;28;20025;-76
2022/01/04 04:52:38;;;;;;;30.10;19.60;;;;;;;;;;5029855;28;20436;-76
2022/01/04 04:55:04;;;;;;;27.45;19.35;;;;;;;;;;5029803;28;20873;-76
2022/01/04 04:57:31;;;;;;;27.00;19.95;;;;;;;;;;5030024;28;20120;-75
2022/01/04 04:59:57;;;;;;;28.80;21.25;;;;;;;;;;5029908;28;20094;-75
2022/01/04 05:02:23;;;;;;;28.15;20.27;;;;;;;;;;5018907;28;20138;-75
2022/01/04 05:04:49;;;;;;;29.95;20.92;;;;;;;;;;5029863;28;20083;-76
2022/01/04 05:07:15;;;;;;;33.15;21.00;;;;;;;;;;5028381;28;20468;-76
2022/01/04 05:09:41;;;;;;;27.52;19.67;;;;;;;;;;5018854;28;20052;-76
2022/01/04 05:12:07;;;;;;;27.60;21.17;;;;;;;;;;5029574;28;20450;-74
2022/01/04 05:14:33;;;;;;;29.98;20.80;;;;;;;;;;5029417;28;20419;-75
2022/01/04 05:17:00;;;;;;;27.20;19.38;;;;;;;;;;5029461;28;20491;-75
2022/01/04 05:19:26;;;;;;;30.35;21.23;;;;;;;;;;5028188;28;20018;-75
2022/01/04 05:21:52;;;;;;;24.23;18.63;;;;;;;;;;5029328;28;20037;-74
2022/01/04 05:24:18;;;;;;;27.83;19.17;;;;;;;;;;5012043;28;20184;-74
2022/01/04 05:26:44;;;;;;;32.13;22.48;;;;;;;;;;5029760;28;20910;-76
2022/01/04 05:29:10;;;;;;;34.67;21.48;;;;;;;;;;5028300;28;20041;-76
2022/01/04 05:31:36;;;;;;;29.08;20.52;;;;;;;;;;5029327;28;20028;-76
2022/01/04 05:34:02;;;;;;;33.13;21.33;;;;;;;;;;5029035;28;20427;-76
2022/01/04 05:36:28;;;;;;;22.35;17.02;;;;;;;;;;5029101;28;20021;-75
2022/01/04 05:38:56;;;;;;;26.70;20.20;;;;;;;;;;5025597;28;20064;-75
2022/01/04 05:41:22;;;;;;;29.65;20.33;;;;;;;;;;5025277;28;20037;-75
2022/01/04 05:43:48;;;;;;;32.10;21.23;;;;;;;;;;5029142;28;20061;-74
2022/01/04 05:46:16;;;;;;;26.25;20.13;;;;;;;;;;5027773;28;20118;-76
2022/01/04 05:48:42;;;;;;;31.35;20.02;;;;;;;;;;5028386;28;20076;-76
2022/01/04 05:51:08;;;;;;;28.33;20.13;;;;;;;;;;5028099;28;20449;-75
2022/01/04 05:53:34;;;;;;;33.78;19.33;;;;;;;;;;5022218;28;20029;-76
2022/01/04 05:56:00;;;;;;;27.77;21.02;;;;;;;;;;5021428;28;20029;-76
2022/01/04 05:58:26;;;;;;;25.98;18.77;;;;;;;;;;5016896;28;20165;-75
2022/01/04 06:00:52;;;;;;;29.02;19.13;;;;;;;;;;5022814;28;20033;-75
2022/01/04 06:03:18;;;;;;;27.15;19.95;;;;;;;;;;5028801;28;20067;-75
2022/01/04 06:05:44;;;;;;;25.13;18.25;;;;;;;;;;5027863;28;20041;-75
2022/01/04 06:08:11;;;;;;;25.63;18.02;;;;;;;;;;5019837;28;20045;-74
2022/01/04 06:10:40;;;;;;;23.63;17.92;;;;;;;;;;5017733;28;20518;-75
2022/01/04 06:15:32;;;;;;;28.75;19.85;;;;;;;;;;5020199;28;20108;-75
2022/01/04 06:17:58;;;;;;;27.17;20.25;;;;;;;;;;5028631;28;20017;-73
2022/01/04 06:20:27;;;;;;;25.52;18.00;;;;;;;;;;5028780;28;20132;-75
2022/01/04 06:22:59;;;;;;;31.95;20.52;;;;;;;;;;5028668;28;20038;-74
2022/01/04 06:25:25;;;;;;;29.40;19.67;;;;;;;;;;5028137;28;20049;-76
2022/01/04 06:27:53;;;;;;;37.40;22.10;;;;;;;;;;5028586;28;20100;-75
2022/01/04 06:30:20;;;;;;;25.10;19.15;;;;;;;;;;5028209;28;20029;-75
2022/01/04 06:32:46;;;;;;;30.33;21.77;;;;;;;;;;5027178;28;20040;-74
2022/01/04 06:35:13;;;;;;;32.67;21.20;;;;;;;;;;5028053;28;20047;-75
2022/01/04 06:37:41;;;;;;;28.00;20.55;;;;;;;;;;5027450;28;20490;-76
2022/01/04 06:40:07;;;;;;;30.10;19.88;;;;;;;;;;5027904;28;20072;-75
2022/01/04 06:42:33;;;;;;;29.83;20.35;;;;;;;;;;5028269;28;20380;-75
2022/01/04 06:44:59;;;;;;;29.88;21.20;;;;;;;;;;5013614;28;20058;-76
2022/01/04 06:47:29;;;;;;;31.15;20.08;;;;;;;;;;5028252;28;20029;-75
2022/01/04 06:49:55;;;;;;;32.40;21.77;;;;;;;;;;5028836;28;20100;-75
2022/01/04 06:52:21;;;;;;;28.67;20.27;;;;;;;;;;5028108;28;20412;-74
2022/01/04 06:54:47;;;;;;;32.28;20.75;;;;;;;;;;5028282;28;20029;-76
2022/01/04 06:57:13;;;;;;;30.83;21.73;;;;;;;;;;5027148;28;20028;-75
2022/01/04 06:59:39;;;;;;;29.92;21.27;;;;;;;;;;5009677;28;20057;-76
2022/01/04 07:02:05;;;;;;;29.58;21.00;;;;;;;;;;5025707;28;20041;-76
2022/01/04 07:04:33;;;;;;;31.20;21.08;;;;;;;;;;5026807;28;20050;-76
2022/01/04 07:06:59;;;;;;;31.35;22.85;;;;;;;;;;5028500;28;20079;-77
2022/01/04 07:09:25;;;;;;;29.30;19.95;;;;;;;;;;5031582;28;20049;-75
2022/01/04 07:11:52;;;;;;;34.10;21.88;;;;;;;;;;5031423;28;20140;-75
2022/01/04 07:14:18;;;;;;;30.98;20.10;;;;;;;;;;5031254;28;20025;-76
2022/01/04 07:16:44;;;;;;;29.00;22.75;;;;;;;;;;5019068;28;20068;-74
2022/01/04 07:19:10;;;;;;;36.60;24.42;;;;;;;;;;5028078;28;20116;-74
2022/01/04 07:21:36;;;;;;;35.35;22.70;;;;;;;;;;5032018;28;20112;-76
2022/01/04 07:24:03;;;;;;;32.92;23.35;;;;;;;;;;5031908;28;20479;-75
2022/01/04 07:26:29;;;;;;;33.20;22.25;;;;;;;;;;5031837;28;20532;-75
2022/01/04 07:28:55;;;;;;;38.45;24.05;;;;;;;;;;5031663;28;20032;-75
2022/01/04 07:31:21;;;;;;;35.22;22.23;;;;;;;;;;5032172;28;20551;-76
2022/01/04 07:33:48;;;;;;;36.67;24.00;;;;;;;;;;5031275;28;20120;-73
2022/01/04 07:36:14;;;;;;;39.83;24.10;;;;;;;;;;5031906;28;20026;-74
2022/01/04 07:38:40;;;;;;;38.10;25.00;;;;;;;;;;5031615;28;20025;-75
2022/01/04 07:41:07;;;;;;;29.48;20.27;;;;;;;;;;5031696;28;20064;-75
2022/01/04 07:43:33;;;;;;;34.25;22.35;;;;;;;;;;5024446;28;19968;-75
2022/01/04 07:45:59;;;;;;;37.17;24.00;;;;;;;;;;5019746;28;20461;-75
2022/01/04 07:48:25;;;;;;;39.65;23.33;;;;;;;;;;5023843;28;20028;-76
2022/01/04 07:50:55;;;;;;;35.42;23.75;;;;;;;;;;5022667;28;20083;-75
2022/01/04 07:53:22;;;;;;;34.37;23.70;;;;;;;;;;5022058;28;20040;-76
2022/01/04 07:55:48;;;;;;;39.50;24.95;;;;;;;;;;5018861;28;20268;-73
2022/01/04 07:58:14;;;;;;;37.33;23.13;;;;;;;;;;5024734;28;20049;-74
2022/01/04 08:00:40;;;;;;;35.33;23.25;;;;;;;;;;5022077;28;20064;-75
2022/01/04 08:03:07;;;;;;;34.30;22.40;;;;;;;;;;5022997;28;20120;-76
2022/01/04 08:05:33;;;;;;;31.40;22.52;;;;;;;;;;5017397;28;20376;-75
2022/01/04 08:08:08;;;;;;;35.20;24.02;;;;;;;;;;5022089;28;20013;-77
2022/01/04 08:10:34;;;;;;;37.85;23.08;;;;;;;;;;5022007;28;20041;-76
2022/01/04 08:13:00;;;;;;;38.97;24.00;;;;;;;;;;5019003;28;20029;-74
2022/01/04 08:15:27;;;;;;;35.22;24.85;;;;;;;;;;5020807;28;20048;-75
2022/01/04 08:17:53;;;;;;;38.40;24.58;;;;;;;;;;5018946;28;20021;-76
2022/01/04 08:20:19;;;;;;;33.95;23.25;;;;;;;;;;5025172;28;20492;-76
2022/01/04 08:22:45;;;;;;;41.22;24.60;;;;;;;;;;5026017;28;20815;-76
2022/01/04 08:25:11;;;;;;;37.72;24.27;;;;;;;;;;5024771;28;20037;-77
2022/01/04 08:27:39;;;;;;;36.17;23.50;;;;;;;;;;5018340;28;20026;-77
2022/01/04 08:30:06;;;;;;;43.35;25.52;;;;;;;;;;5028240;28;20022;-76
2022/01/04 08:32:34;;;;;;;38.25;24.95;;;;;;;;;;5021487;28;20041;-76
2022/01/04 08:35:00;;;;;;;36.67;24.48;;;;;;;;;;5025576;28;20472;-76
2022/01/04 08:37:26;;;;;;;43.25;25.48;;;;;;;;;;5029589;28;20030;-75
2022/01/04 08:39:53;;;;;;;45.35;27.08;;;;;;;;;;5028599;28;20032;-76
2022/01/04 08:42:22;;;;;;;34.83;21.75;;;;;;;;;;5030041;28;20037;-74
2022/01/04 08:44:48;;;;;;;39.35;25.33;;;;;;;;;;5029467;28;20026;-76
2022/01/04 08:47:14;;;;;;;42.40;24.55;;;;;;;;;;5028785;28;20021;-74
2022/01/04 08:49:40;;;;;;;42.17;24.83;;;;;;;;;;5028799;28;20025;-76
2022/01/04 08:52:07;;;;;;;46.40;27.80;;;;;;;;;;5017228;28;20858;-76
2022/01/04 08:54:33;;;;;;;44.45;27.02;;;;;;;;;;5028518;28;20100;-76
2022/01/04 08:57:18;;;;;;;40.83;25.55;;;;;;;;;;5024124;28;20056;-77
2022/01/04 08:59:47;;;;;;;42.92;25.30;;;;;;;;;;5017046;28;20021;-74
2022/01/04 09:02:13;;;;;;;43.50;27.23;;;;;;;;;;5027461;28;20175;-76
2022/01/04 09:04:39;;;;;;;47.65;28.17;;;;;;;;;;5030030;28;20104;-76
2022/01/04 09:07:05;;;;;;;45.42;27.33;;;;;;;;;;5029920;28;20026;-76
2022/01/04 09:09:31;;;;;;;41.42;26.60;;;;;;;;;;5029572;28;20253;-75
2022/01/04 09:11:57;;;;;;;48.03;27.17;;;;;;;;;;5028751;28;20034;-76
2022/01/04 09:14:26;;;;;;;46.33;27.17;;;;;;;;;;5029218;28;20021;-74
2022/01/04 09:19:38;;;;;;;50.50;29.95;;;;;;;;;;5009819;28;20040;-76
2022/01/04 09:22:04;;;;;;;50.08;30.13;;;;;;;;;;5025805;28;20036;-75
2022/01/04 09:24:31;;;;;;;49.40;29.92;;;;;;;;;;5029140;28;20025;-74
2022/01/04 09:26:57;;;;;;;50.53;30.25;;;;;;;;;;5031443;28;20021;-76
2022/01/04 09:29:23;;;;;;;45.50;26.98;;;;;;;;;;5028790;28;20115;-75
2022/01/04 09:31:50;;;;;;;57.15;32.10;;;;;;;;;;5028866;28;20139;-75
2022/01/04 09:34:17;;;;;;;49.65;28.45;;;;;;;;;;5029064;28;20025;-75
2022/01/04 09:36:44;;;;;;;47.22;28.45;;;;;;;;;;5031503;28;20025;-76
2022/01/04 09:39:30;;;;;;;55.90;29.10;;;;;;;;;;5029289;28;20033;-76
2022/01/04 09:41:56;;;;;;;49.85;27.70;;;;;;;;;;5029151;28;20056;-74
2022/01/04 09:44:25;;;;;;;43.60;27.58;;;;;;;;;;5012915;28;20037;-76
2022/01/04 09:46:51;;;;;;;50.65;29.10;;;;;;;;;;5016320;28;20033;-75
2022/01/04 09:49:17;;;;;;;48.88;27.48;;;;;;;;;;5028550;28;20130;-74
2022/01/04 09:51:43;;;;;;;44.08;25.98;;;;;;;;;;5019047;28;20113;-75
2022/01/04 09:54:09;;;;;;;40.10;25.65;;;;;;;;;;5028501;28;20087;-74
2022/01/04 09:56:35;;;;;;;44.05;26.00;;;;;;;;;;5020166;28;20903;-75
2022/01/04 09:59:01;;;;;;;30.77;17.90;;;;;;;;;;5029086;28;20173;-75
2022/01/04 10:01:38;;;;;;;35.83;19.63;;;;;;;;;;5028984;28;20036;-73
2022/01/04 10:04:04;;;;;;;19.83;11.63;;;;;;;;;;5028605;28;20104;-74
2022/01/04 10:06:30;;;;;;;16.42;9.85;;;;;;;;;;5028539;28;20036;-75
2022/01/04 10:08:59;;;;;;;16.35;8.82;;;;;;;;;;5028846;28;20087;-75
2022/01/04 10:11:31;;;;;;;17.93;9.23;;;;;;;;;;5008769;28;20046;-74
2022/01/04 10:13:57;;;;;;;17.13;8.50;;;;;;;;;;5016507;28;20588;-76
2022/01/04 10:16:23;;;;;;;17.95;8.65;;;;;;;;;;5028769;28;20675;-75
2022/01/04 10:18:53;;;;;;;16.92;10.02;;;;;;;;;;5027506;28;20021;-75
2022/01/04 10:21:20;;;;;;;16.50;9.50;;;;;;;;;;5028263;28;20048;-76
2022/01/04 10:23:53;;;;;;;15.38;8.38;;;;;;;;;;5028110;28;20052;-75
2022/01/04 10:26:28;;;;;;;15.30;10.25;;;;;;;;;;5027675;28;20029;-75
2022/01/04 10:28:54;;;;;;;16.50;9.07;;;;;;;;;;5027584;28;20025;-75
2022/01/04 10:31:20;;;;;;;15.15;9.50;;;;;;;;;;5028172;28;20018;-75
2022/01/04 10:33:51;;;;;;;10.60;6.97;;;;;;;;;;5024852;28;20096;-74
2022/01/04 10:36:19;;;;;;;18.42;11.38;;;;;;;;;;5018814;28;20104;-76
2022/01/04 10:38:48;;;;;;;17.88;9.40;;;;;;;;;;5020209;28;20085;-76
2022/01/04 10:41:20;;;;;;;18.23;11.75;;;;;;;;;;5022278;28;20030;-75
2022/01/04 10:43:50;;;;;;;19.58;12.18;;;;;;;;;;5028283;28;20100;-75
2022/01/04 10:46:18;;;;;;;;;;;;;;;;;;5023889;28;20052;-75
2022/01/04 10:48:45;;;;;;;24.52;12.82;;;;;;;;;;5023085;28;20326;-75
2022/01/04 10:51:12;;;;;;;21.95;14.18;;;;;;;;;;5027742;28;20104;-75
2022/01/04 10:53:47;;;;;;;22.65;14.57;;;;;;;;;;5012454;28;20033;-75
2022/01/04 10:56:15;;;;;;;25.83;16.77;;;;;;;;;;5028062;28;20107;-76
2022/01/04 10:58:45;;;;;;;30.05;18.92;;;;;;;;;;5028147;28;20451;-75
2022/01/04 11:01:19;;;;;;;28.90;18.80;;;;;;;;;;5028462;28;20108;-75
2022/01/04 11:03:46;;;;;;;30.83;18.40;;;;;;;;;;5027916;28;20060;-76
2022/01/04 11:06:13;;;;;;;31.48;20.00;;;;;;;;;;5027853;28;20149;-75
2022/01/04 11:08:40;;;;;;;27.83;18.02;;;;;;;;;;5027251;28;20029;-76
2022/01/04 11:11:07;;;;;;;32.88;20.27;;;;;;;;;;5027743;28;20128;-74
2022/01/04 11:13:33;;;;;;;31.50;19.80;;;;;;;;;;5026957;28;20053;-74
2022/01/04 11:16:01;;;;;;;31.20;19.67;;;;;;;;;;5024936;28;20021;-74
2022/01/04 11:18:27;;;;;;;34.67;21.50;;;;;;;;;;5025787;28;20026;-75
2022/01/04 11:20:54;;;;;;;31.40;20.83;;;;;;;;;;5027938;28;20017;-74
2022/01/04 11:23:25;;;;;;;34.35;22.52;;;;;;;;;;5028298;28;20040;-74
2022/01/04 11:25:52;;;;;;;36.45;23.88;;;;;;;;;;5027578;28;20060;-75
2022/01/04 11:28:18;;;;;;;34.53;22.50;;;;;;;;;;5027154;28;20013;-75
2022/01/04 11:30:51;;;;;;;36.17;24.65;;;;;;;;;;5026201;28;20401;-74
2022/01/04 11:33:26;;;;;;;39.03;23.88;;;;;;;;;;5026465;28;20115;-75
2022/01/04 11:35:54;;;;;;;41.13;26.45;;;;;;;;;;5026475;28;20416;-75
2022/01/04 11:38:30;;;;;;;36.90;23.52;;;;;;;;;;5026795;28;20116;-74
2022/01/04 11:40:56;;;;;;;37.00;23.95;;;;;;;;;;5026580;28;20032;-75
2022/01/04 11:43:28;;;;;;;39.20;24.98;;;;;;;;;;5025323;28;20033;-73
2022/01/04 11:45:54;;;;;;;35.55;22.20;;;;;;;;;;5025986;28;20032;-74
2022/01/04 11:48:41;;;;;;;35.72;24.00;;;;;;;;;;5030260;28;20468;-75
2022/01/04 11:51:09;;;;;;;33.13;20.67;;;;;;;;;;5031309;28;20539;-75
2022/01/04 11:53:36;;;;;;;30.80;20.80;;;;;;;;;;5031773;28;20030;-74
2022/01/04 11:56:04;;;;;;;32.58;20.27;;;;;;;;;;5031093;28;20026;-74
2022/01/04 11:58:44;;;;;;;36.08;22.75;;;;;;;;;;5031191;28;20021;-74
2022/01/04 12:01:17;;;;;;;35.80;22.90;;;;;;;;;;5030866;28;20018;-74
2022/01/04 12:03:47;;;;;;;36.60;21.23;;;;;;;;;;5030988;28;20063;-75
2022/01/04 12:06:14;;;;;;;30.45;19.77;;;;;;;;;;5030560;28;20473;-75
2022/01/04 12:08:51;;;;;;;33.58;21.13;;;;;;;;;;5020357;28;20052;-75
2022/01/04 12:11:26;;;;;;;32.50;21.33;;;;;;;;;;5029951;28;20056;-73
2022/01/04 12:13:55;;;;;;;33.53;21.77;;;;;;;;;;5017921;28;20075;-73
2022/01/04 12:16:32;;;;;;;36.08;21.30;;;;;;;;;;5029958;28;20100;-74
2022/01/04 12:18:58;;;;;;;28.52;18.75;;;;;;;;;;5031983;28;20029;-75
2022/01/04 12:21:29;;;;;;;30.85;18.90;;;;;;;;;;5031540;28;20080;-74
2022/01/04 12:23:59;;;;;;;27.10;16.92;;;;;;;;;;5031419;28;20084;-75
2022/01/04 12:26:26;;;;;;;28.85;17.55;;;;;;;;;;5032737;28;20025;-75
2022/01/04 12:28:56;;;;;;;25.50;15.50;;;;;;;;;;5031939;28;20087;-76
2022/01/04 12:31:25;;;;;;;26.55;16.52;;;;;;;;;;5031839;28;20026;-75
2022/01/04 12:33:52;;;;;;;23.33;14.35;;;;;;;;;;5030632;28;20018;-75
2022/01/04 12:36:30;;;;;;;23.58;13.13;;;;;;;;;;5031684;28;20024;-74
2022/01/04 12:39:17;;;;;;;21.80;10.93;;;;;;;;;;5029081;28;20065;-73
2022/01/04 12:41:46;;;;;;;21.88;11.98;;;;;;;;;;5030969;28;21022;-74
2022/01/04 12:44:13;;;;;;;11.07;6.88;;;;;;;;;;5030747;28;20026;-74
2022/01/04 12:46:40;;;;;;;10.75;5.47;;;;;;;;;;5029816;28;20387;-74
2022/01/04 12:49:10;;;;;;;8.70;3.53;;;;;;;;;;5029109;28;20018;-75
2022/01/04 12:51:47;;;;;;;6.88;3.15;;;;;;;;;;5031060;28;20032;-75
2022/01/04 12:54:17;;;;;;;8.57;2.55;;;;;;;;;;5027430;28;20816;-73
2022/01/04 12:56:50;;;;;;;5.93;2.03;;;;;;;;;;5030556;28;20053;-74
2022/01/04 12:59:22;;;;;;;6.70;3.03;;;;;;;;;;5029574;28;20094;-75
2022/01/04 13:01:49;;;;;;;4.20;2.00;;;;;;;;;;5010678;28;20042;-74
2022/01/04 13:04:20;;;;;;;6.35;2.70;;;;;;;;;;5024966;28;20021;-74
2022/01/04 13:06:46;;;;;;;6.60;1.80;;;;;;;;;;5030976;28;20022;-74
2022/01/04 13:09:17;;;;;;;6.28;2.20;;;;;;;;;;5030809;28;20036;-74
2022/01/04 13:11:59;;;;;;;7.85;2.17;;;;;;;;;;5020547;28;20492;-75
2022/01/04 13:14:25;;;;;;;6.28;2.38;;;;;;;;;;5023788;28;20032;-75
2022/01/04 13:17:00;;;;;;;6.80;2.40;;;;;;;;;;5030637;28;20028;-75
2022/01/04 13:19:26;;;;;;;8.00;2.42;;;;;;;;;;5029033;28;20032;-74
2022/01/04 13:22:18;;;;;;;5.57;1.90;;;;;;;;;;5030777;28;20124;-75
2022/01/04 13:24:46;;;;;;;6.15;1.98;;;;;;;;;;5029812;28;20037;-75
2022/01/04 13:27:16;;;;;;;5.45;2.03;;;;;;;;;;5027642;28;20392;-75
2022/01/04 13:29:44;;;;;;;5.18;2.00;;;;;;;;;;5029592;28;20503;-75
2022/01/04 13:32:10;;;;;;;5.53;1.90;;;;;;;;;;5029628;28;20021;-72
2022/01/04 13:34:36;;;;;;;9.70;2.25;;;;;;;;;;5028310;28;20083;-74
2022/01/04 13:37:09;;;;;;;5.95;2.13;;;;;;;;;;5029228;28;20035;-74
2022/01/04 13:39:35;;;;;;;5.30;1.98;;;;;;;;;;5027996;28;20049;-74
2022/01/04 13:42:01;;;;;;;4.47;1.35;;;;;;;;;;5029596;28;20033;-74
2022/01/04 13:44:27;;;;;;;3.00;1.58;;;;;;;;;;5029647;28;20383;-75
2022/01/04 13:46:53;;;;;;;3.50;1.17;;;;;;;;;;5029356;28;20029;-75
2022/01/04 13:49:26;;;;;;;5.20;1.50;;;;;;;;;;5028912;28;20084;-75
2022/01/04 13:51:53;;;;;;;4.15;1.27;;;;;;;;;;5029397;28;20495;-75
2022/01/04 13:54:19;;;;;;;4.25;1.15;;;;;;;;;;5029354;28;20067;-74
2022/01/04 13:56:45;;;;;;;3.00;1.20;;;;;;;;;;5029345;28;20025;-74
2022/01/04 13:59:20;;;;;;;2.47;1.10;;;;;;;;;;5028955;28;20109;-76
2022/01/04 14:01:48;;;;;;;4.28;1.23;;;;;;;;;;5029080;28;20166;-75
2022/01/04 14:04:14;;;;;;;1.75;1.15;;;;;;;;;;5028840;28;20059;-75
2022/01/04 14:06:41;;;;;;;3.17;1.13;;;;;;;;;;5028705;28;20025;-75
2022/01/04 14:09:11;;;;;;;8.00;2.03;;;;;;;;;;5028787;28;20017;-75
2022/01/04 14:11:41;;;;;;;5.00;1.30;;;;;;;;;;5028370;28;20045;-76
2022/01/04 14:14:15;;;;;;;5.22;1.10;;;;;;;;;;5028756;28;20056;-76
2022/01/04 14:16:42;;;;;;;2.63;1.10;;;;;;;;;;5029045;28;20022;-76
2022/01/04 14:19:10;;;;;;;6.68;1.40;;;;;;;;;;5025099;28;20631;-76
2022/01/04 14:21:56;;;;;;;3.95;1.00;;;;;;;;;;5021395;28;20490;-75
2022/01/04 14:24:43;;;;;;;2.97;1.10;;;;;;;;;;5028769;28;20463;-75
2022/01/04 14:27:09;;;;;;;4.30;1.00;;;;;;;;;;5028440;28;20068;-75
2022/01/04 14:29:42;;;;;;;5.35;1.40;;;;;;;;;;5029096;28;20064;-75
2022/01/04 14:32:18;;;;;;;4.72;1.08;;;;;;;;;;5028556;28;20040;-75
2022/01/04 14:34:45;;;;;;;6.40;1.10;;;;;;;;;;5027775;28;20517;-76
2022/01/04 14:37:11;;;;;;;4.80;1.35;;;;;;;;;;5028622;28;20571;-75